createdAt,value
2019-05-03T00:00:44.315Z,99.90
2019-05-03T00:03:14.446Z,99.90
2019-05-03T00:05:49.935Z,99.90
2019-05-03T00:08:19.100Z,99.90
2019-05-03T00:10:48.487Z,99.90
2019-05-03T00:13:17.728Z,99.90
2019-05-03T00:16:08.704Z,99.90
2019-05-03T00:18:38.031Z,99.90
2019-05-03T00:21:07.310Z,99.90
2019-05-03T00:23:36.459Z,99.90
2019-05-03T00:26:05.714Z,99.90
2019-05-03T00:28:34.952Z,99.90
2019-05-03T00:31:04.338Z,99.90
2019-05-03T00:33:34.201Z,99.90
2019-05-03T00:36:22.338Z,99.90
2019-05-03T00:38:54.182Z,99.90
2019-05-03T00:41:23.500Z,99.90
2019-05-03T00:43:52.819Z,99.90
2019-05-03T00:46:22.116Z,99.90
2019-05-03T00:48:52.473Z,99.90
2019-05-03T00:51:22.523Z,99.90
2019-05-03T00:53:53.103Z,99.90
2019-05-03T00:56:22.484Z,99.90
2019-05-03T00:58:55.256Z,99.90
2019-05-03T01:01:24.484Z,99.90
2019-05-03T01:03:53.787Z,99.90
2019-05-03T01:06:23.007Z,99.90
2019-05-03T01:08:52.454Z,99.90
2019-05-03T01:11:22.268Z,99.90
2019-05-03T01:13:52.338Z,99.90
2019-05-03T01:16:22.883Z,99.90
2019-05-03T01:18:52.470Z,99.90
2019-05-03T01:21:22.580Z,99.90
2019-05-03T01:23:52.673Z,99.90
2019-05-03T01:26:22.664Z,99.90
2019-05-03T01:28:52.608Z,99.90
2019-05-03T01:31:22.785Z,99.90
2019-05-03T01:33:52.670Z,99.90
2019-05-03T01:36:22.920Z,99.90
2019-05-03T01:38:52.895Z,99.90
2019-05-03T01:41:23.002Z,99.90
2019-05-03T01:43:52.779Z,99.90
2019-05-03T01:46:22.752Z,99.90
2019-05-03T01:49:12.302Z,99.90
2019-05-03T01:51:59.219Z,99.90
2019-05-03T01:54:28.475Z,99.90
2019-05-03T01:56:59.185Z,99.90
2019-05-03T01:59:28.612Z,99.90
2019-05-03T02:02:07.080Z,99.90
2019-05-03T02:04:44.951Z,99.90
2019-05-03T02:07:14.134Z,99.90
2019-05-03T02:09:43.466Z,99.90
2019-05-03T02:12:12.782Z,99.90
2019-05-03T02:14:42.312Z,99.90
2019-05-03T02:17:12.437Z,99.90
2019-05-03T02:19:42.137Z,99.90
2019-05-03T02:22:12.055Z,99.90
2019-05-03T02:24:42.276Z,99.90
2019-05-03T02:27:12.713Z,99.90
2019-05-03T02:29:42.550Z,99.90
2019-05-03T02:32:13.317Z,99.90
2019-05-03T02:34:44.051Z,99.90
2019-05-03T02:37:14.030Z,99.90
2019-05-03T02:39:43.505Z,99.90
2019-05-03T02:42:15.854Z,99.90
2019-05-03T02:44:46.249Z,99.90
2019-05-03T02:47:29.877Z,99.90
2019-05-03T02:50:05.855Z,99.90
2019-05-03T02:52:36.543Z,99.90
2019-05-03T02:55:07.127Z,99.90
2019-05-03T02:57:36.459Z,99.90
2019-05-03T03:00:08.440Z,99.90
2019-05-03T03:02:39.486Z,99.90
2019-05-03T03:05:09.323Z,99.90
2019-05-03T03:07:41.031Z,99.90
2019-05-03T03:10:11.972Z,99.90
2019-05-03T03:12:46.233Z,99.90
2019-05-03T03:15:16.178Z,99.90
2019-05-03T03:17:47.207Z,99.90
2019-05-03T03:20:16.668Z,99.90
2019-05-03T03:22:47.023Z,99.90
2019-05-03T03:25:25.695Z,99.90
2019-05-03T03:27:58.310Z,99.90
2019-05-03T03:31:11.507Z,99.90
2019-05-03T03:33:40.706Z,99.90
2019-05-03T03:36:43.042Z,99.90
2019-05-03T03:38:41.143Z,99.90
2019-05-03T03:41:12.705Z,99.90
2019-05-03T03:43:46.083Z,99.90
2019-05-03T03:46:15.958Z,99.90
2019-05-03T03:48:47.210Z,99.90
2019-05-03T03:51:17.863Z,99.90
2019-05-03T03:53:48.743Z,99.90
2019-05-03T03:56:19.975Z,99.90
2019-05-03T03:58:49.571Z,99.90
2019-05-03T04:01:19.683Z,99.90
2019-05-03T04:03:48.893Z,99.90
2019-05-03T04:06:18.153Z,99.90
2019-05-03T04:08:47.484Z,99.90
2019-05-03T04:11:16.956Z,99.90
2019-05-03T04:13:47.040Z,99.90
2019-05-03T04:16:38.354Z,99.90
2019-05-03T04:19:18.025Z,99.90
2019-05-03T04:21:47.455Z,99.90
2019-05-03T04:24:16.988Z,99.90
2019-05-03T04:26:46.344Z,99.90
2019-05-03T04:29:16.077Z,99.90
2019-05-03T04:31:45.894Z,99.90
2019-05-03T04:34:16.239Z,99.90
2019-05-03T04:36:46.146Z,99.90
2019-05-03T04:39:19.711Z,99.90
2019-05-03T04:41:46.576Z,99.90
2019-05-03T04:44:15.806Z,99.90
2019-05-03T04:46:46.490Z,99.90
2019-05-03T04:49:15.934Z,99.90
2019-05-03T04:51:46.463Z,99.90
2019-05-03T04:54:37.968Z,99.90
2019-05-03T04:57:07.212Z,99.90
2019-05-03T04:59:36.500Z,99.90
2019-05-03T05:02:06.290Z,99.90
2019-05-03T05:04:35.970Z,99.90
2019-05-03T05:07:06.229Z,99.90
2019-05-03T05:09:35.720Z,99.90
2019-05-03T05:12:05.797Z,99.90
2019-05-03T05:14:35.539Z,99.90
2019-05-03T05:17:06.109Z,99.90
2019-05-03T05:19:42.026Z,99.90
2019-05-03T05:22:12.303Z,99.90
2019-05-03T05:24:41.451Z,99.90
2019-05-03T05:27:19.246Z,99.90
2019-05-03T05:29:48.454Z,99.90
2019-05-03T05:32:17.815Z,99.90
2019-05-03T05:34:47.043Z,99.90
2019-05-03T05:37:16.224Z,99.90
2019-05-03T05:39:45.472Z,99.90
2019-05-03T05:42:14.921Z,99.90
2019-05-03T05:44:45.380Z,99.90
2019-05-03T05:47:34.403Z,99.90
2019-05-03T05:50:12.675Z,99.90
2019-05-03T05:52:41.913Z,99.90
2019-05-03T05:55:28.724Z,99.90
2019-05-03T05:58:11.706Z,99.90
2019-05-03T06:01:02.534Z,99.90
2019-05-03T06:03:31.770Z,99.90
2019-05-03T06:06:05.262Z,99.90
2019-05-03T06:08:49.250Z,99.90
2019-05-03T06:11:46.516Z,99.90
2019-05-03T06:14:24.387Z,99.90
2019-05-03T06:17:15.421Z,99.90
2019-05-03T06:20:06.451Z,99.90
2019-05-03T06:22:48.210Z,99.90
2019-05-03T06:25:36.860Z,99.90
2019-05-03T06:28:18.415Z,99.90
2019-05-03T06:30:50.678Z,99.90
2019-05-03T06:33:19.862Z,99.90
2019-05-03T06:35:49.075Z,99.90
2019-05-03T06:38:18.306Z,99.90
2019-05-03T06:40:47.508Z,99.90
2019-05-03T06:43:16.803Z,99.90
2019-05-03T06:45:50.258Z,99.90
2019-05-03T06:48:17.706Z,99.90
2019-05-03T06:50:47.871Z,99.90
2019-05-03T06:53:17.064Z,99.90
2019-05-03T06:55:48.392Z,99.90
2019-05-03T06:58:30.482Z,99.90
2019-05-03T07:00:58.004Z,99.90
2019-05-03T07:03:49.274Z,99.90
2019-05-03T07:06:37.435Z,99.90
2019-05-03T07:09:25.054Z,99.90
2019-05-03T07:11:55.566Z,99.90
2019-05-03T07:14:24.895Z,99.90
2019-05-03T07:16:55.389Z,99.90
2019-05-03T07:19:25.072Z,99.90
2019-05-03T07:21:54.665Z,99.90
2019-05-03T07:24:24.873Z,99.90
2019-05-03T07:26:55.143Z,99.90
2019-05-03T07:29:25.469Z,99.90
2019-05-03T07:31:55.028Z,99.90
2019-05-03T07:34:24.831Z,99.90
2019-05-03T07:36:55.526Z,99.90
2019-05-03T07:39:24.971Z,99.90
2019-05-03T07:41:55.135Z,99.90
2019-05-03T07:44:25.507Z,99.90
2019-05-03T07:46:55.550Z,99.90
2019-05-03T07:49:25.039Z,99.90
2019-05-03T07:51:55.374Z,99.90
2019-05-03T07:54:24.936Z,99.90
2019-05-03T07:56:59.165Z,99.90
2019-05-03T07:59:28.383Z,99.90
2019-05-03T08:01:58.559Z,99.90
2019-05-03T08:04:27.708Z,99.90
2019-05-03T08:06:57.044Z,99.90
2019-05-03T08:09:26.267Z,99.90
2019-05-03T08:11:55.522Z,99.90
2019-05-03T08:14:25.275Z,99.90
2019-05-03T08:16:54.890Z,99.90
2019-05-03T08:19:26.820Z,99.90
2019-05-03T08:21:56.659Z,99.90
2019-05-03T08:24:26.098Z,99.90
2019-05-03T08:26:55.868Z,99.90
2019-05-03T08:29:25.511Z,99.90
2019-05-03T08:32:05.048Z,99.90
2019-05-03T08:34:39.622Z,99.90
2019-05-03T08:37:15.819Z,99.90
2019-05-03T08:39:45.143Z,99.90
2019-05-03T08:42:25.440Z,99.90
2019-05-03T08:44:55.324Z,99.90
2019-05-03T08:47:24.927Z,99.90
2019-05-03T08:49:55.477Z,99.90
2019-05-03T08:52:24.944Z,99.90
2019-05-03T08:54:55.017Z,99.90
2019-05-03T08:57:25.333Z,99.90
2019-05-03T08:59:55.066Z,99.90
2019-05-03T09:02:25.780Z,99.90
2019-05-03T09:04:55.252Z,99.90
2019-05-03T09:07:25.356Z,99.90
2019-05-03T09:10:00.105Z,99.90
2019-05-03T09:12:48.376Z,99.90
2019-05-03T09:15:17.599Z,99.90
2019-05-03T09:17:46.886Z,99.90
2019-05-03T09:20:16.108Z,99.90
2019-05-03T09:22:45.497Z,99.90
2019-05-03T09:25:15.579Z,99.90
2019-05-03T09:27:44.871Z,99.90
2019-05-03T09:30:14.690Z,99.90
2019-05-03T09:32:44.809Z,99.90
2019-05-03T09:35:29.026Z,99.90
2019-05-03T09:37:46.325Z,99.90
2019-05-03T09:40:15.499Z,99.90
2019-05-03T09:42:44.683Z,99.60
2019-05-03T09:45:15.371Z,99.20
2019-05-03T09:47:44.942Z,99.90
2019-05-03T09:50:15.656Z,97.50
2019-05-03T09:52:47.085Z,99.00
2019-05-03T09:55:21.465Z,98.00
2019-05-03T09:57:50.752Z,97.10
2019-05-03T10:00:20.699Z,96.30
2019-05-03T10:02:49.942Z,95.70
2019-05-03T10:05:19.403Z,95.10
2019-05-03T10:07:48.547Z,95.50
2019-05-03T10:10:17.800Z,95.00
2019-05-03T10:12:46.944Z,95.00
2019-05-03T10:15:31.547Z,94.00
2019-05-03T10:18:00.795Z,93.60
2019-05-03T10:20:30.048Z,94.30
2019-05-03T10:23:06.447Z,94.40
2019-05-03T10:25:35.973Z,94.20
2019-05-03T10:28:05.818Z,92.90
2019-05-03T10:30:35.498Z,95.10
2019-05-03T10:33:10.430Z,94.40
2019-05-03T10:35:39.616Z,92.50
2019-05-03T10:38:08.868Z,92.60
2019-05-03T10:40:38.110Z,92.60
2019-05-03T10:43:09.767Z,90.20
2019-05-03T10:45:39.227Z,87.80
2019-05-03T10:48:08.387Z,83.10
2019-05-03T10:50:37.639Z,82.80
2019-05-03T10:53:40.966Z,87.00
2019-05-03T10:56:22.675Z,84.30
2019-05-03T10:58:55.014Z,82.80
2019-05-03T11:01:33.152Z,83.70
2019-05-03T11:04:02.423Z,81.90
2019-05-03T11:06:31.674Z,78.80
2019-05-03T11:09:05.480Z,78.90
2019-05-03T11:11:35.218Z,79.60
2019-05-03T11:14:05.514Z,79.00
2019-05-03T11:16:35.272Z,78.30
2019-05-03T11:19:05.436Z,79.70
2019-05-03T11:21:34.974Z,81.90
2019-05-03T11:24:04.553Z,79.20
2019-05-03T11:26:34.983Z,82.70
2019-05-03T11:29:05.166Z,80.90
2019-05-03T11:31:52.707Z,77.60
2019-05-03T11:34:25.366Z,80.40
2019-05-03T11:37:29.187Z,78.40
2019-05-03T11:39:58.370Z,79.60
2019-05-03T11:42:27.627Z,78.80
2019-05-03T11:44:56.875Z,75.90
2019-05-03T11:47:27.715Z,78.70
2019-05-03T11:49:57.064Z,78.20
2019-05-03T11:52:26.339Z,77.80
2019-05-03T11:54:55.488Z,76.60
2019-05-03T11:57:26.830Z,75.40
2019-05-03T11:59:56.128Z,73.80
2019-05-03T12:02:44.897Z,74.10
2019-05-03T12:05:20.504Z,76.80
2019-05-03T12:07:49.730Z,71.80
2019-05-03T12:10:32.185Z,74.90
2019-05-03T12:12:55.388Z,72.70
2019-05-03T12:15:30.499Z,73.10
2019-05-03T12:18:02.494Z,77.30
2019-05-03T12:20:33.443Z,78.20
2019-05-03T12:23:05.721Z,76.80
2019-05-03T12:25:36.122Z,77.10
2019-05-03T12:28:06.010Z,78.90
2019-05-03T12:30:35.677Z,76.60
2019-05-03T12:33:05.928Z,76.10
2019-05-03T12:35:35.952Z,74.40
2019-05-03T12:38:05.707Z,70.20
2019-05-03T12:40:35.193Z,68.40
2019-05-03T12:43:06.119Z,69.00
2019-05-03T12:45:35.707Z,71.60
2019-05-03T12:48:05.307Z,72.90
2019-05-03T12:50:34.908Z,74.90
2019-05-03T12:53:04.950Z,74.20
2019-05-03T12:55:35.558Z,74.60
2019-05-03T12:58:06.353Z,74.30
2019-05-03T13:00:57.750Z,75.70
2019-05-03T13:03:30.359Z,75.30
2019-05-03T13:05:59.675Z,69.60
2019-05-03T13:08:35.223Z,68.80
2019-05-03T13:11:05.455Z,70.60
2019-05-03T13:13:35.822Z,65.30
2019-05-03T13:16:06.760Z,68.90
2019-05-03T13:18:36.110Z,68.40
2019-05-03T13:21:06.294Z,70.80
2019-05-03T13:23:35.916Z,68.20
2019-05-03T13:26:05.913Z,66.90
2019-05-03T13:28:35.551Z,69.40
2019-05-03T13:31:05.814Z,67.20
2019-05-03T13:33:35.323Z,68.90
2019-05-03T13:36:05.023Z,68.50
2019-05-03T13:38:35.022Z,70.00
2019-05-03T13:41:06.605Z,71.20
2019-05-03T13:43:35.719Z,67.40
2019-05-03T13:46:05.324Z,69.70
2019-05-03T13:48:42.542Z,65.30
2019-05-03T13:51:05.626Z,63.40
2019-05-03T13:53:35.017Z,64.40
2019-05-03T13:56:04.917Z,64.70
2019-05-03T13:58:35.917Z,64.20
2019-05-03T14:01:05.781Z,64.90
2019-05-03T14:03:35.477Z,65.70
2019-05-03T14:06:08.388Z,65.20
2019-05-03T14:08:35.801Z,62.10
2019-05-03T14:11:05.227Z,64.80
2019-05-03T14:13:35.442Z,64.30
2019-05-03T14:16:05.686Z,67.10
2019-05-03T14:18:35.439Z,64.10
2019-05-03T14:21:26.904Z,63.90
2019-05-03T14:24:12.186Z,65.80
2019-05-03T14:26:44.565Z,65.10
2019-05-03T14:29:14.921Z,65.50
2019-05-03T14:31:45.337Z,68.30
2019-05-03T14:34:17.323Z,63.00
2019-05-03T14:36:45.674Z,64.20
2019-05-03T14:39:15.214Z,62.40
2019-05-03T14:41:46.798Z,60.70
2019-05-03T14:44:18.145Z,62.20
2019-05-03T14:46:46.483Z,63.60
2019-05-03T14:49:15.646Z,62.40
2019-05-03T14:51:45.612Z,64.50
2019-05-03T14:54:15.546Z,61.90
2019-05-03T14:57:03.814Z,62.70
2019-05-03T14:59:50.656Z,61.60
2019-05-03T15:02:42.476Z,65.50
2019-05-03T15:05:05.492Z,66.50
2019-05-03T15:07:35.152Z,64.90
2019-05-03T15:10:05.627Z,64.70
2019-05-03T15:12:35.964Z,64.60
2019-05-03T15:15:05.980Z,65.20
2019-05-03T15:17:35.198Z,63.90
2019-05-03T15:20:05.204Z,63.50
2019-05-03T15:22:34.700Z,64.60
2019-05-03T15:25:05.087Z,65.30
2019-05-03T15:27:35.394Z,66.50
2019-05-03T15:30:05.704Z,65.00
2019-05-03T15:32:35.443Z,65.10
2019-05-03T15:35:05.723Z,64.80
2019-05-03T15:37:35.777Z,63.20
2019-05-03T15:40:06.526Z,64.00
2019-05-03T15:42:37.056Z,62.90
2019-05-03T15:45:25.209Z,63.00
2019-05-03T15:48:16.604Z,63.80
2019-05-03T15:50:45.916Z,63.60
2019-05-03T15:53:15.279Z,64.80
2019-05-03T15:55:44.498Z,64.90
2019-05-03T15:58:15.345Z,65.20
2019-05-03T16:00:45.046Z,66.50
2019-05-03T16:03:14.598Z,64.10
2019-05-03T16:05:44.719Z,64.20
2019-05-03T16:08:15.367Z,64.70
2019-05-03T16:10:45.681Z,65.30
2019-05-03T16:13:15.105Z,66.80
2019-05-03T16:15:44.616Z,65.80
2019-05-03T16:18:14.842Z,66.50
2019-05-03T16:20:45.095Z,64.90
2019-05-03T16:23:15.456Z,64.90
2019-05-03T16:25:45.017Z,66.10
2019-05-03T16:28:20.481Z,65.00
2019-05-03T16:30:55.687Z,65.60
2019-05-03T16:33:27.851Z,65.50
2019-05-03T16:35:55.891Z,67.20
2019-05-03T16:38:25.167Z,67.10
2019-05-03T16:40:54.580Z,66.70
2019-05-03T16:43:25.689Z,66.20
2019-05-03T16:45:55.236Z,66.20
2019-05-03T16:48:24.814Z,67.50
2019-05-03T16:50:54.119Z,66.60
2019-05-03T16:53:25.369Z,65.70
2019-05-03T16:55:54.800Z,68.00
2019-05-03T16:58:24.784Z,66.90
2019-05-03T17:00:55.335Z,67.50
2019-05-03T17:03:38.653Z,67.80
2019-05-03T17:06:24.160Z,68.70
2019-05-03T17:09:05.415Z,69.90
2019-05-03T17:11:34.791Z,71.70
2019-05-03T17:14:04.992Z,72.40
2019-05-03T17:16:34.533Z,69.60
2019-05-03T17:19:05.705Z,70.60
2019-05-03T17:21:35.012Z,71.70
2019-05-03T17:24:06.222Z,71.00
2019-05-03T17:26:35.613Z,71.70
2019-05-03T17:29:04.810Z,71.00
2019-05-03T17:31:35.180Z,72.30
2019-05-03T17:34:05.530Z,73.20
2019-05-03T17:36:35.042Z,73.10
2019-05-03T17:39:08.873Z,73.10
2019-05-03T17:41:52.513Z,73.90
2019-05-03T17:44:25.595Z,73.00
2019-05-03T17:46:54.965Z,74.60
2019-05-03T17:49:24.191Z,74.60
2019-05-03T17:52:15.449Z,75.20
2019-05-03T17:55:04.996Z,75.90
2019-05-03T17:57:56.618Z,74.80
2019-05-03T18:00:40.152Z,76.00
2019-05-03T18:03:09.922Z,76.10
2019-05-03T18:05:44.950Z,76.00
2019-05-03T18:08:27.986Z,78.50
2019-05-03T18:11:04.528Z,79.30
2019-05-03T18:13:35.395Z,78.00
2019-05-03T18:16:04.912Z,77.00
2019-05-03T18:18:35.284Z,76.50
2019-05-03T18:21:04.876Z,78.10
2019-05-03T18:23:35.154Z,77.60
2019-05-03T18:26:05.252Z,77.90
2019-05-03T18:28:35.627Z,78.90
2019-05-03T18:31:05.779Z,78.70
2019-05-03T18:33:36.014Z,78.00
2019-05-03T18:36:05.652Z,78.60
2019-05-03T18:38:40.535Z,81.20
2019-05-03T18:41:13.645Z,79.30
2019-05-03T18:44:01.417Z,81.60
2019-05-03T18:46:37.296Z,80.50
2019-05-03T18:49:06.643Z,81.10
2019-05-03T18:51:35.966Z,82.70
2019-05-03T18:54:07.239Z,82.30
2019-05-03T18:56:36.292Z,83.30
2019-05-03T18:59:05.602Z,84.90
2019-05-03T19:01:34.959Z,84.20
2019-05-03T19:04:15.587Z,85.80
2019-05-03T19:06:45.248Z,85.90
2019-05-03T19:09:34.615Z,87.80
2019-05-03T19:12:19.979Z,85.20
2019-05-03T19:14:49.335Z,87.60
2019-05-03T19:17:35.448Z,88.20
2019-05-03T19:20:06.007Z,89.10
2019-05-03T19:22:35.486Z,90.00
2019-05-03T19:25:05.175Z,90.50
2019-05-03T19:27:34.691Z,90.30
2019-05-03T19:30:04.688Z,90.70
2019-05-03T19:32:35.856Z,90.60
2019-05-03T19:35:05.968Z,89.40
2019-05-03T19:37:35.137Z,90.00
2019-05-03T19:40:06.508Z,90.50
2019-05-03T19:42:36.130Z,90.90
2019-05-03T19:45:06.009Z,91.10
2019-05-03T19:47:35.390Z,91.30
2019-05-03T19:50:05.474Z,91.30
2019-05-03T19:52:38.375Z,91.10
2019-05-03T19:55:08.267Z,91.30
2019-05-03T19:57:40.459Z,90.80
2019-05-03T20:00:10.454Z,91.00
2019-05-03T20:02:54.498Z,90.60
2019-05-03T20:05:31.411Z,90.90
2019-05-03T20:08:15.365Z,91.20
2019-05-03T20:10:46.602Z,91.50
2019-05-03T20:13:16.293Z,91.70
2019-05-03T20:15:45.698Z,91.70
2019-05-03T20:18:16.707Z,92.00
2019-05-03T20:20:46.032Z,92.30
2019-05-03T20:23:15.351Z,91.80
2019-05-03T20:25:44.602Z,92.00
2019-05-03T20:28:15.383Z,92.40
2019-05-03T20:30:45.262Z,92.60
2019-05-03T20:33:14.558Z,92.50
2019-05-03T20:35:45.243Z,92.60
2019-05-03T20:38:15.257Z,92.60
2019-05-03T20:40:45.066Z,93.10
2019-05-03T20:43:36.667Z,93.40
2019-05-03T20:46:10.695Z,93.20
2019-05-03T20:48:42.105Z,93.20
2019-05-03T20:51:11.399Z,93.30
2019-05-03T20:53:40.726Z,93.70
2019-05-03T20:56:09.908Z,94.00
2019-05-03T20:58:39.192Z,94.30
2019-05-03T21:01:08.503Z,94.60
2019-05-03T21:03:37.735Z,94.80
2019-05-03T21:06:06.891Z,95.60
2019-05-03T21:08:49.393Z,96.10
2019-05-03T21:11:07.131Z,95.80
2019-05-03T21:13:42.001Z,96.20
2019-05-03T21:16:14.773Z,96.40
2019-05-03T21:18:52.636Z,96.60
2019-05-03T21:21:31.093Z,96.70
2019-05-03T21:24:05.510Z,97.50
2019-05-03T21:26:34.755Z,98.10
2019-05-03T21:29:04.763Z,98.70
2019-05-03T21:31:35.218Z,98.40
2019-05-03T21:34:05.633Z,99.00
2019-05-03T21:36:35.223Z,98.40
2019-05-03T21:39:05.705Z,98.90
2019-05-03T21:41:36.679Z,99.20
2019-05-03T21:44:06.082Z,99.60
2019-05-03T21:46:40.955Z,99.90
2019-05-03T21:49:25.331Z,99.90
2019-05-03T21:51:54.654Z,99.90
2019-05-03T21:54:24.577Z,99.90
2019-05-03T21:56:54.823Z,99.90
2019-05-03T21:59:26.605Z,99.90
2019-05-03T22:01:56.035Z,99.90
2019-05-03T22:04:25.289Z,99.90
2019-05-03T22:06:54.873Z,99.90
2019-05-03T22:09:24.270Z,99.90
2019-05-03T22:11:54.851Z,99.90
2019-05-03T22:14:34.966Z,99.90
2019-05-03T22:17:31.694Z,99.90
2019-05-03T22:20:08.650Z,99.90
2019-05-03T22:22:55.474Z,99.90
2019-05-03T22:25:27.879Z,99.90
2019-05-03T22:27:57.178Z,99.90
2019-05-03T22:30:26.891Z,99.90
2019-05-03T22:32:56.574Z,99.90
2019-05-03T22:35:25.843Z,99.90
2019-05-03T22:37:55.172Z,99.90
2019-05-03T22:40:25.130Z,99.90
2019-05-03T22:42:54.597Z,99.90
2019-05-03T22:45:23.796Z,99.90
2019-05-03T22:47:54.856Z,99.90
2019-05-03T22:50:25.496Z,99.90
2019-05-03T22:52:55.024Z,99.90
2019-05-03T22:55:24.704Z,99.90
2019-05-03T22:57:54.693Z,99.90
2019-05-03T23:00:25.240Z,99.90
2019-05-03T23:02:54.981Z,99.90
2019-05-03T23:05:24.442Z,99.90
2019-05-03T23:07:55.284Z,99.90
2019-05-03T23:10:25.685Z,99.90
2019-05-03T23:12:55.196Z,99.90
2019-05-03T23:15:24.536Z,99.90
2019-05-03T23:17:54.551Z,99.90
2019-05-03T23:20:48.939Z,99.90
2019-05-03T23:23:36.099Z,99.90
2019-05-03T23:26:05.492Z,99.90
2019-05-03T23:28:35.665Z,99.90
2019-05-03T23:31:05.425Z,99.90
2019-05-03T23:33:34.846Z,99.90
2019-05-03T23:36:04.567Z,99.90
2019-05-03T23:38:34.069Z,99.90
2019-05-03T23:41:04.818Z,99.90
2019-05-03T23:43:35.825Z,99.90
2019-05-03T23:46:05.168Z,99.90
2019-05-03T23:48:35.095Z,99.90
2019-05-03T23:51:04.657Z,99.90
2019-05-03T23:53:34.011Z,99.90
2019-05-03T23:56:10.383Z,99.90
2019-05-03T23:58:39.621Z,99.90
